Time;durP1;ratioP1;P1;durP2;ratioP2;P2;SDS_P1;SDS_P2;PMS_P1;PMS_P2;Temp;Humidity;BMP_temperature;BMP_pressure;BME280_temperature;BME280_humidity;BME280_pressure;Samples;Min_cycle;Max_cycle;Signal;HPM_P1;HPM_P2
2022/05/13 00:00:46;;;;;;;12.03;3.83;;;;;;;;;;5022612;28;20217;-73
2022/05/13 00:03:12;;;;;;;8.50;2.13;;;;;;;;;;5031799;28;20588;-71
2022/05/13 00:05:37;;;;;;;9.63;2.40;;;;;;;;;;5027532;28;20221;-74
2022/05/13 00:08:02;;;;;;;7.03;1.97;;;;;;;;;;5029436;28;20246;-72
2022/05/13 00:10:27;;;;;;;10.57;2.20;;;;;;;;;;5023437;28;20281;-73
2022/05/13 00:12:52;;;;;;;8.10;2.30;;;;;;;;;;5034430;28;20209;-75
2022/05/13 00:15:20;;;;;;;7.10;2.13;;;;;;;;;;5031018;28;20532;-74
2022/05/13 00:17:47;;;;;;;8.03;2.23;;;;;;;;;;5028120;28;20229;-72
2022/05/13 00:20:13;;;;;;;7.93;2.43;;;;;;;;;;5025676;28;20193;-72
2022/05/13 00:22:42;;;;;;;10.20;3.10;;;;;;;;;;5028588;28;20587;-71
2022/05/13 00:25:07;;;;;;;6.80;2.40;;;;;;;;;;5022216;28;20210;-73
2022/05/13 00:27:33;;;;;;;4.47;1.87;;;;;;;;;;5014006;28;20171;-71
2022/05/13 00:29:58;;;;;;;6.57;2.33;;;;;;;;;;5020141;28;20208;-73
2022/05/13 00:32:23;;;;;;;10.40;2.30;;;;;;;;;;5017795;28;20253;-73
2022/05/13 00:34:49;;;;;;;6.97;2.03;;;;;;;;;;5027466;28;20568;-74
2022/05/13 00:37:14;;;;;;;6.90;2.50;;;;;;;;;;5028463;28;20178;-71
2022/05/13 00:39:39;;;;;;;10.70;3.40;;;;;;;;;;5027984;28;20558;-73
2022/05/13 00:42:06;;;;;;;6.80;2.33;;;;;;;;;;5037441;28;20607;-74
2022/05/13 00:44:31;;;;;;;6.47;2.27;;;;;;;;;;5028878;28;20203;-71
2022/05/13 00:46:56;;;;;;;9.83;2.60;;;;;;;;;;5034546;28;20174;-74
2022/05/13 00:49:23;;;;;;;11.07;2.70;;;;;;;;;;5030410;28;20747;-73
2022/05/13 00:51:48;;;;;;;6.90;2.57;;;;;;;;;;5033551;28;20316;-73
2022/05/13 00:54:14;;;;;;;8.53;2.83;;;;;;;;;;5030281;28;20265;-73
2022/05/13 00:56:42;;;;;;;7.17;2.53;;;;;;;;;;5036849;28;20201;-71
2022/05/13 00:59:09;;;;;;;10.63;3.77;;;;;;;;;;5032023;28;20170;-74
2022/05/13 01:01:34;;;;;;;10.63;3.20;;;;;;;;;;5035822;28;20586;-73
2022/05/13 01:04:02;;;;;;;7.53;3.07;;;;;;;;;;5033117;28;20187;-73
2022/05/13 01:06:27;;;;;;;6.60;2.63;;;;;;;;;;5031332;28;20738;-73
2022/05/13 01:08:53;;;;;;;6.20;2.70;;;;;;;;;;5037388;28;20191;-71
2022/05/13 01:11:20;;;;;;;5.10;2.57;;;;;;;;;;5032300;28;20577;-74
2022/05/13 01:13:48;;;;;;;8.30;2.60;;;;;;;;;;5030026;28;20189;-71
2022/05/13 01:16:14;;;;;;;8.23;2.60;;;;;;;;;;5021381;28;20276;-74
2022/05/13 01:18:40;;;;;;;7.90;2.50;;;;;;;;;;5026555;28;21362;-74
2022/05/13 01:21:06;;;;;;;6.60;2.47;;;;;;;;;;5025492;28;20263;-71
2022/05/13 01:23:36;;;;;;;7.03;2.43;;;;;;;;;;5038493;28;20198;-72
2022/05/13 01:26:03;;;;;;;3.90;2.40;;;;;;;;;;5031819;28;20336;-72
2022/05/13 01:28:33;;;;;;;6.00;2.70;;;;;;;;;;5023958;28;20606;-74
2022/05/13 01:31:00;;;;;;;8.70;3.20;;;;;;;;;;5029790;28;20739;-73
2022/05/13 01:33:25;;;;;;;7.73;2.63;;;;;;;;;;5030324;28;20232;-71
2022/05/13 01:35:53;;;;;;;10.60;4.40;;;;;;;;;;5029026;28;20186;-73
2022/05/13 01:38:19;;;;;;;10.80;3.20;;;;;;;;;;5029532;28;20182;-73
2022/05/13 01:40:45;;;;;;;9.40;3.97;;;;;;;;;;5029744;28;20219;-73
2022/05/13 01:43:10;;;;;;;11.20;3.03;;;;;;;;;;5028828;28;20674;-73
2022/05/13 01:45:36;;;;;;;9.63;3.40;;;;;;;;;;5017780;28;20212;-73
2022/05/13 01:48:01;;;;;;;10.37;3.13;;;;;;;;;;5024210;28;22246;-73
2022/05/13 01:50:27;;;;;;;10.23;3.60;;;;;;;;;;5026108;28;20255;-73
2022/05/13 01:52:54;;;;;;;15.20;4.10;;;;;;;;;;5029248;28;20639;-74
2022/05/13 01:55:19;;;;;;;11.53;3.97;;;;;;;;;;5021651;28;20180;-73
2022/05/13 01:57:45;;;;;;;9.57;3.90;;;;;;;;;;5028841;28;20689;-74
2022/05/13 02:00:10;;;;;;;10.77;3.90;;;;;;;;;;5022820;28;20183;-74
2022/05/13 02:03:44;;;;;;;9.50;4.33;;;;;;;;;;5031498;28;20229;-74
2022/05/13 02:05:21;;;;;;;11.83;3.47;;;;;;;;;;5023706;28;20210;-74
2022/05/13 02:07:46;;;;;;;13.03;3.90;;;;;;;;;;5034849;28;20186;-71
2022/05/13 02:10:11;;;;;;;16.30;4.43;;;;;;;;;;5025945;28;20538;-71
2022/05/13 02:12:36;;;;;;;9.33;4.10;;;;;;;;;;5029376;28;20193;-74
2022/05/13 02:15:03;;;;;;;14.77;4.87;;;;;;;;;;5018062;28;20175;-73
2022/05/13 02:17:28;;;;;;;14.43;4.50;;;;;;;;;;5021243;28;20183;-73
2022/05/13 02:19:53;;;;;;;13.53;5.20;;;;;;;;;;5033378;28;20174;-73
2022/05/13 02:22:18;;;;;;;10.13;3.90;;;;;;;;;;5029378;28;20229;-73
2022/05/13 02:24:43;;;;;;;9.40;4.07;;;;;;;;;;5022928;28;20198;-73
2022/05/13 02:27:08;;;;;;;13.43;4.40;;;;;;;;;;5017779;28;20194;-73
2022/05/13 02:29:34;;;;;;;14.33;4.87;;;;;;;;;;5025613;28;20590;-74
2022/05/13 02:31:59;;;;;;;17.33;4.57;;;;;;;;;;5025760;28;20207;-73
2022/05/13 02:34:24;;;;;;;13.30;4.77;;;;;;;;;;5029878;28;20537;-72
2022/05/13 02:36:49;;;;;;;10.37;4.50;;;;;;;;;;5029564;28;20185;-73
2022/05/13 02:39:14;;;;;;;16.40;4.53;;;;;;;;;;5028826;28;20620;-73
2022/05/13 02:41:40;;;;;;;15.57;4.87;;;;;;;;;;5026788;28;20194;-73
2022/05/13 02:44:05;;;;;;;15.37;5.50;;;;;;;;;;5028900;28;20546;-73
2022/05/13 02:46:32;;;;;;;10.53;4.77;;;;;;;;;;5027042;28;20837;-73
2022/05/13 02:48:57;;;;;;;10.23;4.80;;;;;;;;;;5025755;28;20216;-73
2022/05/13 02:51:22;;;;;;;14.60;5.70;;;;;;;;;;5026301;28;20282;-74
2022/05/13 02:53:48;;;;;;;14.33;4.60;;;;;;;;;;5026894;28;20184;-74
2022/05/13 02:56:13;;;;;;;13.33;5.13;;;;;;;;;;5026507;28;20193;-72
2022/05/13 02:58:39;;;;;;;13.87;5.60;;;;;;;;;;5033310;28;20174;-72
2022/05/13 03:01:05;;;;;;;14.87;5.33;;;;;;;;;;5029812;28;20208;-71
2022/05/13 03:03:30;;;;;;;10.90;5.03;;;;;;;;;;5027341;28;20170;-74
2022/05/13 03:05:56;;;;;;;15.67;6.13;;;;;;;;;;5026418;28;20198;-73
2022/05/13 03:08:21;;;;;;;13.67;5.80;;;;;;;;;;5020138;28;20240;-73
2022/05/13 03:10:46;;;;;;;13.20;5.43;;;;;;;;;;5025352;28;20783;-71
2022/05/13 03:13:13;;;;;;;15.37;6.50;;;;;;;;;;5034025;28;20169;-73
2022/05/13 03:15:39;;;;;;;19.23;6.97;;;;;;;;;;5034185;28;20190;-72
2022/05/13 03:18:04;;;;;;;16.87;6.60;;;;;;;;;;5034317;28;20186;-72
2022/05/13 03:20:29;;;;;;;14.00;5.80;;;;;;;;;;5036034;28;20204;-74
2022/05/13 03:22:55;;;;;;;14.13;6.10;;;;;;;;;;5037059;28;20197;-72
2022/05/13 03:25:20;;;;;;;19.53;6.33;;;;;;;;;;5035735;28;20588;-72
2022/05/13 03:27:46;;;;;;;19.27;7.40;;;;;;;;;;5031149;28;20186;-72
2022/05/13 03:30:13;;;;;;;17.03;6.27;;;;;;;;;;5027016;28;20551;-72
2022/05/13 03:32:38;;;;;;;21.17;7.30;;;;;;;;;;5031603;28;20205;-72
2022/05/13 03:35:04;;;;;;;20.30;6.97;;;;;;;;;;5024288;28;20179;-73
2022/05/13 03:37:29;;;;;;;14.70;6.40;;;;;;;;;;5031524;28;20810;-74
2022/05/13 03:39:55;;;;;;;16.33;7.30;;;;;;;;;;5033713;28;20205;-74
2022/05/13 03:42:22;;;;;;;14.40;7.00;;;;;;;;;;5028474;28;20198;-74
2022/05/13 03:44:48;;;;;;;20.30;7.00;;;;;;;;;;5024085;28;20688;-73
2022/05/13 03:47:13;;;;;;;17.77;7.07;;;;;;;;;;5021428;28;20268;-73
2022/05/13 03:49:38;;;;;;;15.13;6.60;;;;;;;;;;5037011;28;20184;-73
2022/05/13 03:52:03;;;;;;;20.00;6.23;;;;;;;;;;5035581;28;20675;-73
2022/05/13 03:54:29;;;;;;;17.20;7.00;;;;;;;;;;5037609;28;20182;-72
2022/05/13 03:56:54;;;;;;;16.63;6.63;;;;;;;;;;5042539;28;20252;-75
2022/05/13 03:59:19;;;;;;;22.57;7.50;;;;;;;;;;5031892;28;20959;-73
2022/05/13 04:01:44;;;;;;;28.00;8.60;;;;;;;;;;5033862;28;20198;-73
2022/05/13 04:04:09;;;;;;;14.47;7.30;;;;;;;;;;5033848;28;20181;-73
2022/05/13 04:09:19;;;;;;;15.37;6.80;;;;;;;;;;5028973;28;20200;-73
2022/05/13 04:16:04;;;;;;;21.17;6.43;;;;;;;;;;5034098;28;20194;-73
2022/05/13 04:17:16;;;;;;;16.93;6.07;;;;;;;;;;5030405;28;20685;-73
2022/05/13 04:19:41;;;;;;;21.30;6.90;;;;;;;;;;5034586;28;20187;-73
2022/05/13 04:22:07;;;;;;;17.03;5.57;;;;;;;;;;5022322;28;20207;-73
2022/05/13 04:24:32;;;;;;;17.43;5.73;;;;;;;;;;5030276;28;20254;-73
2022/05/13 04:26:57;;;;;;;12.00;5.47;;;;;;;;;;5030907;28;20651;-73
2022/05/13 04:29:22;;;;;;;17.47;5.43;;;;;;;;;;5024257;28;20202;-73
2022/05/13 04:31:47;;;;;;;13.37;4.77;;;;;;;;;;5029555;28;20273;-73
2022/05/13 04:34:12;;;;;;;14.90;4.77;;;;;;;;;;5027559;28;20202;-73
2022/05/13 04:36:38;;;;;;;11.53;4.10;;;;;;;;;;5020171;28;20182;-73
2022/05/13 04:39:03;;;;;;;12.87;4.13;;;;;;;;;;5024255;28;20185;-73
2022/05/13 04:44:14;;;;;;;10.27;3.70;;;;;;;;;;5025093;28;20300;-73
2022/05/13 04:46:39;;;;;;;11.30;3.50;;;;;;;;;;5015192;28;20702;-73
2022/05/13 04:49:05;;;;;;;11.77;3.80;;;;;;;;;;5019942;28;20214;-73
2022/05/13 04:51:30;;;;;;;14.67;5.07;;;;;;;;;;5027265;28;20221;-73
2022/05/13 04:53:56;;;;;;;13.47;3.83;;;;;;;;;;5035630;28;20188;-71
2022/05/13 04:56:22;;;;;;;11.43;3.83;;;;;;;;;;5033190;28;20567;-73
2022/05/13 04:58:47;;;;;;;18.87;6.23;;;;;;;;;;5021406;28;20174;-74
2022/05/13 05:01:13;;;;;;;15.90;6.23;;;;;;;;;;5024531;28;20232;-71
2022/05/13 05:03:40;;;;;;;12.37;3.97;;;;;;;;;;5022393;28;20186;-71
2022/05/13 05:06:06;;;;;;;11.07;4.77;;;;;;;;;;5018393;28;20218;-73
2022/05/13 05:08:31;;;;;;;16.73;4.40;;;;;;;;;;5025499;28;20182;-73
2022/05/13 05:10:57;;;;;;;15.98;5.32;;;;;;;;;;5030261;28;20198;-73
2022/05/13 05:13:23;;;;;;;19.60;4.20;;;;;;;;;;5026733;28;20240;-73
2022/05/13 05:15:49;;;;;;;17.40;6.07;;;;;;;;;;5027993;28;20321;-75
2022/05/13 05:18:14;;;;;;;15.63;5.43;;;;;;;;;;5023331;28;20288;-72
2022/05/13 05:20:40;;;;;;;13.07;4.73;;;;;;;;;;5028339;28;20185;-73
2022/05/13 05:23:05;;;;;;;8.30;4.07;;;;;;;;;;5023858;28;20721;-74
2022/05/13 05:25:31;;;;;;;15.45;4.60;;;;;;;;;;5025112;28;20233;-72
2022/05/13 05:27:56;;;;;;;12.37;4.40;;;;;;;;;;5025872;28;20193;-74
2022/05/13 05:30:21;;;;;;;15.60;5.70;;;;;;;;;;5036556;28;20270;-72
2022/05/13 05:32:46;;;;;;;12.10;5.20;;;;;;;;;;5030871;28;20218;-72
2022/05/13 05:35:14;;;;;;;12.18;4.50;;;;;;;;;;5033659;28;20198;-71
2022/05/13 05:37:39;;;;;;;24.30;7.00;;;;;;;;;;5028651;28;20191;-71
2022/05/13 05:40:05;;;;;;;17.42;6.03;;;;;;;;;;5023458;28;20241;-74
2022/05/13 05:42:30;;;;;;;15.00;4.78;;;;;;;;;;5025929;28;20285;-74
2022/05/13 05:44:55;;;;;;;18.38;5.97;;;;;;;;;;5020154;28;20203;-73
2022/05/13 05:47:21;;;;;;;12.55;4.97;;;;;;;;;;5028424;28;20187;-73
2022/05/13 05:49:46;;;;;;;10.63;3.50;;;;;;;;;;5014901;28;20180;-71
2022/05/13 05:52:12;;;;;;;12.40;3.83;;;;;;;;;;5033499;28;20214;-71
2022/05/13 05:57:22;;;;;;;12.93;3.97;;;;;;;;;;5028820;28;20236;-73
2022/05/13 05:59:48;;;;;;;18.10;3.78;;;;;;;;;;5032484;28;20182;-73
2022/05/13 06:02:13;;;;;;;9.65;3.15;;;;;;;;;;5025646;28;20218;-71
2022/05/13 06:04:39;;;;;;;7.60;3.10;;;;;;;;;;5028030;28;20210;-73
2022/05/13 06:07:08;;;;;;;9.32;3.03;;;;;;;;;;5013680;28;20181;-74
2022/05/13 06:09:34;;;;;;;9.98;2.47;;;;;;;;;;5026945;28;20198;-73
2022/05/13 06:12:00;;;;;;;8.73;2.88;;;;;;;;;;5030574;28;20202;-73
2022/05/13 06:14:25;;;;;;;9.23;2.60;;;;;;;;;;5023807;28;20220;-73
2022/05/13 06:16:51;;;;;;;6.20;2.60;;;;;;;;;;5030488;28;20174;-74
2022/05/13 06:19:16;;;;;;;7.25;2.65;;;;;;;;;;5027156;28;20183;-72
2022/05/13 06:21:41;;;;;;;7.32;1.77;;;;;;;;;;5013993;28;20202;-74
2022/05/13 06:24:07;;;;;;;5.93;2.13;;;;;;;;;;5011379;28;20182;-71
2022/05/13 06:26:32;;;;;;;6.00;1.88;;;;;;;;;;5013247;28;20202;-71
2022/05/13 06:28:58;;;;;;;4.68;1.20;;;;;;;;;;5020977;28;20197;-73
2022/05/13 06:31:23;;;;;;;6.85;1.75;;;;;;;;;;5031173;28;20577;-74
2022/05/13 06:33:49;;;;;;;6.10;2.05;;;;;;;;;;5024904;28;20724;-71
2022/05/13 06:36:14;;;;;;;6.03;1.65;;;;;;;;;;5029554;28;20228;-73
2022/05/13 06:38:39;;;;;;;7.22;1.88;;;;;;;;;;5013680;28;20193;-73
2022/05/13 06:41:04;;;;;;;5.65;2.00;;;;;;;;;;5015137;28;20201;-73
2022/05/13 06:43:29;;;;;;;6.20;2.00;;;;;;;;;;5023597;28;20547;-73
2022/05/13 06:45:55;;;;;;;5.55;2.42;;;;;;;;;;5030091;28;20695;-72
2022/05/13 06:48:20;;;;;;;4.93;1.75;;;;;;;;;;5026503;28;20174;-72
2022/05/13 06:50:47;;;;;;;4.20;1.70;;;;;;;;;;5028380;28;20202;-72
2022/05/13 06:53:12;;;;;;;7.60;2.10;;;;;;;;;;5029338;28;20175;-72
2022/05/13 06:55:39;;;;;;;5.00;1.23;;;;;;;;;;5026594;28;20562;-72
2022/05/13 06:58:04;;;;;;;7.50;1.80;;;;;;;;;;5022715;28;20175;-72
2022/05/13 07:00:30;;;;;;;5.05;1.77;;;;;;;;;;5018299;28;20188;-72
2022/05/13 07:02:55;;;;;;;5.30;1.63;;;;;;;;;;5008056;28;20177;-72
2022/05/13 07:05:20;;;;;;;5.85;1.90;;;;;;;;;;5013766;28;20238;-73
2022/05/13 07:07:46;;;;;;;6.53;1.58;;;;;;;;;;5010351;28;20186;-72
2022/05/13 07:10:12;;;;;;;6.00;1.48;;;;;;;;;;5029239;28;20192;-72
2022/05/13 07:12:38;;;;;;;4.50;1.50;;;;;;;;;;5025575;28;20217;-73
2022/05/13 07:15:04;;;;;;;6.80;2.20;;;;;;;;;;5023885;28;20206;-72
2022/05/13 07:17:30;;;;;;;3.30;1.40;;;;;;;;;;5026579;28;20218;-72
2022/05/13 07:19:55;;;;;;;7.68;1.65;;;;;;;;;;5025113;28;20201;-72
2022/05/13 07:22:21;;;;;;;6.25;1.70;;;;;;;;;;5019361;28;20733;-71
2022/05/13 07:24:46;;;;;;;7.35;1.50;;;;;;;;;;5028220;28;20209;-70
2022/05/13 07:27:12;;;;;;;7.15;1.90;;;;;;;;;;5025829;28;20225;-71
2022/05/13 07:29:37;;;;;;;8.73;2.67;;;;;;;;;;5028923;28;20659;-71
2022/05/13 07:32:02;;;;;;;4.85;1.27;;;;;;;;;;5028097;28;20197;-70
2022/05/13 07:34:27;;;;;;;6.25;1.70;;;;;;;;;;5022147;28;20182;-71
2022/05/13 07:36:53;;;;;;;4.72;1.60;;;;;;;;;;5019002;28;20197;-71
2022/05/13 07:42:03;;;;;;;2.80;0.98;;;;;;;;;;5025647;28;20237;-70
2022/05/13 07:44:28;;;;;;;3.95;1.02;;;;;;;;;;5021203;28;20194;-70
2022/05/13 07:46:53;;;;;;;4.70;1.65;;;;;;;;;;5019769;28;20178;-71
2022/05/13 07:49:18;;;;;;;3.23;1.50;;;;;;;;;;5024675;28;20214;-70
2022/05/13 07:51:43;;;;;;;4.80;1.23;;;;;;;;;;5008841;28;20448;-70
2022/05/13 07:54:09;;;;;;;5.45;1.20;;;;;;;;;;5013561;28;20190;-71
2022/05/13 07:56:34;;;;;;;4.67;1.43;;;;;;;;;;5008799;28;20282;-69
2022/05/13 07:59:02;;;;;;;6.63;2.03;;;;;;;;;;5010481;28;20436;-71
2022/05/13 08:01:28;;;;;;;7.65;1.20;;;;;;;;;;5008936;28;20210;-70
2022/05/13 08:03:53;;;;;;;2.78;1.00;;;;;;;;;;5010953;28;20190;-70
2022/05/13 08:06:18;;;;;;;4.20;0.90;;;;;;;;;;5016505;28;20233;-70
2022/05/13 08:08:45;;;;;;;3.15;1.05;;;;;;;;;;5002408;28;20852;-70
2022/05/13 08:11:14;;;;;;;3.22;1.05;;;;;;;;;;4996533;28;20233;-71
2022/05/13 08:13:39;;;;;;;4.28;1.30;;;;;;;;;;5001620;28;20183;-69
2022/05/13 08:16:05;;;;;;;4.38;1.27;;;;;;;;;;4996369;28;20229;-70
2022/05/13 08:18:31;;;;;;;4.82;1.13;;;;;;;;;;4997907;28;20186;-70
2022/05/13 08:20:56;;;;;;;3.65;1.58;;;;;;;;;;4997167;28;20205;-71
2022/05/13 08:23:21;;;;;;;8.02;1.60;;;;;;;;;;4999000;28;20265;-71
2022/05/13 08:25:47;;;;;;;7.82;1.50;;;;;;;;;;5003736;28;20218;-71
2022/05/13 08:28:12;;;;;;;7.82;1.92;;;;;;;;;;5005537;28;20182;-70
2022/05/13 08:30:38;;;;;;;7.22;1.40;;;;;;;;;;5007166;28;21765;-70
2022/05/13 08:33:08;;;;;;;4.70;1.42;;;;;;;;;;5004867;28;20183;-71
2022/05/13 08:35:33;;;;;;;4.10;1.48;;;;;;;;;;5005628;28;20844;-71
2022/05/13 08:37:58;;;;;;;7.47;1.40;;;;;;;;;;5000035;28;20282;-70
2022/05/13 08:40:42;;;;;;;4.53;1.10;;;;;;;;;;5011092;28;20546;-70
2022/05/13 08:43:10;;;;;;;7.72;1.73;;;;;;;;;;5004621;28;20519;-70
2022/05/13 08:45:38;;;;;;;6.38;1.50;;;;;;;;;;5003290;28;20271;-70
2022/05/13 08:48:06;;;;;;;4.78;1.42;;;;;;;;;;5003183;28;20501;-71
2022/05/13 08:50:50;;;;;;;9.82;1.60;;;;;;;;;;5001543;28;20183;-71
2022/05/13 08:53:23;;;;;;;3.55;1.50;;;;;;;;;;5005092;28;20186;-71
2022/05/13 08:55:49;;;;;;;6.90;1.40;;;;;;;;;;5002306;28;20191;-71
2022/05/13 08:58:21;;;;;;;6.85;1.58;;;;;;;;;;5006600;28;20181;-70
2022/05/13 09:00:50;;;;;;;3.47;1.17;;;;;;;;;;5004103;28;20218;-70
2022/05/13 09:03:22;;;;;;;7.25;1.88;;;;;;;;;;5003547;28;20191;-71
2022/05/13 09:05:56;;;;;;;5.25;1.30;;;;;;;;;;5003402;28;20505;-70
2022/05/13 09:08:21;;;;;;;3.40;1.40;;;;;;;;;;5005891;28;20292;-71
2022/05/13 09:10:53;;;;;;;3.78;1.40;;;;;;;;;;5001850;28;20675;-71
2022/05/13 09:13:24;;;;;;;5.63;1.52;;;;;;;;;;5004917;28;20179;-71
2022/05/13 09:15:51;;;;;;;7.60;1.92;;;;;;;;;;5003817;28;20210;-71
2022/05/13 09:18:28;;;;;;;8.27;1.92;;;;;;;;;;5006206;28;20179;-71
2022/05/13 09:20:58;;;;;;;7.03;2.10;;;;;;;;;;5004615;28;20225;-71
2022/05/13 09:23:23;;;;;;;4.03;1.52;;;;;;;;;;4999941;28;20277;-71
2022/05/13 09:25:58;;;;;;;6.28;1.35;;;;;;;;;;5003056;28;20203;-71
2022/05/13 09:28:24;;;;;;;4.70;1.80;;;;;;;;;;5003622;28;20866;-71
2022/05/13 09:30:53;;;;;;;4.93;1.80;;;;;;;;;;5004242;28;20211;-72
2022/05/13 09:33:21;;;;;;;5.40;2.22;;;;;;;;;;5002171;28;20213;-71
2022/05/13 09:35:47;;;;;;;7.10;1.75;;;;;;;;;;5003420;28;20187;-72
2022/05/13 09:38:14;;;;;;;8.38;2.03;;;;;;;;;;5003079;28;20201;-72
2022/05/13 09:40:39;;;;;;;5.80;2.35;;;;;;;;;;5002153;28;20190;-72
2022/05/13 09:43:04;;;;;;;4.40;1.48;;;;;;;;;;5001773;28;20190;-71
2022/05/13 09:45:31;;;;;;;3.90;2.07;;;;;;;;;;5001693;28;20210;-70
2022/05/13 09:47:59;;;;;;;4.97;1.17;;;;;;;;;;5002140;28;20754;-73
2022/05/13 09:50:26;;;;;;;6.82;1.70;;;;;;;;;;5000383;28;20174;-69
2022/05/13 09:52:52;;;;;;;5.93;1.20;;;;;;;;;;5010512;28;20186;-70
2022/05/13 09:55:25;;;;;;;2.70;1.48;;;;;;;;;;5021298;28;20181;-71
2022/05/13 09:57:52;;;;;;;5.78;1.70;;;;;;;;;;5002213;28;20714;-71
2022/05/13 10:00:22;;;;;;;6.00;1.30;;;;;;;;;;5001373;28;20185;-71
2022/05/13 10:02:48;;;;;;;7.03;1.42;;;;;;;;;;5000585;28;20272;-69
2022/05/13 10:05:19;;;;;;;5.65;1.63;;;;;;;;;;5008693;28;20202;-71
2022/05/13 10:07:48;;;;;;;3.40;1.60;;;;;;;;;;5001125;28;20206;-71
2022/05/13 10:15:49;;;;;;;9.20;3.10;;;;;;;;;;5001049;28;20388;-72
2022/05/13 10:18:18;;;;;;;6.78;1.80;;;;;;;;;;5002150;28;20202;-70
2022/05/13 10:20:44;;;;;;;3.72;1.30;;;;;;;;;;5001135;28;20245;-69
2022/05/13 10:23:10;;;;;;;4.30;1.58;;;;;;;;;;5002302;28;20270;-69
2022/05/13 10:25:43;;;;;;;7.65;1.95;;;;;;;;;;5001312;28;20222;-70
2022/05/13 10:28:12;;;;;;;6.00;1.55;;;;;;;;;;5007123;28;20174;-70
2022/05/13 10:30:38;;;;;;;5.45;1.40;;;;;;;;;;5003799;28;20257;-70
2022/05/13 10:33:08;;;;;;;6.97;1.50;;;;;;;;;;5001165;28;20262;-70
2022/05/13 10:35:41;;;;;;;3.42;1.45;;;;;;;;;;5001879;28;20430;-70
2022/05/13 10:38:13;;;;;;;4.55;1.30;;;;;;;;;;5001925;28;20179;-70
2022/05/13 10:40:42;;;;;;;4.65;1.52;;;;;;;;;;5002852;28;20313;-70
2022/05/13 10:43:15;;;;;;;5.45;1.50;;;;;;;;;;5002060;28;20633;-70
2022/05/13 10:45:41;;;;;;;4.07;1.38;;;;;;;;;;5003133;28;20614;-70
2022/05/13 10:48:19;;;;;;;5.05;1.30;;;;;;;;;;4999771;28;20202;-70
2022/05/13 10:51:03;;;;;;;2.65;1.40;;;;;;;;;;5000969;28;20198;-71
2022/05/13 10:53:28;;;;;;;5.00;1.52;;;;;;;;;;5002110;28;20206;-70
2022/05/13 10:55:59;;;;;;;3.58;1.33;;;;;;;;;;5004229;28;20178;-72
2022/05/13 10:58:25;;;;;;;4.63;1.48;;;;;;;;;;5001199;28;20660;-71
2022/05/13 11:00:56;;;;;;;2.63;1.20;;;;;;;;;;5000817;28;20214;-70
2022/05/13 11:03:24;;;;;;;2.28;1.20;;;;;;;;;;5002411;28;20178;-71
2022/05/13 11:06:08;;;;;;;5.47;1.67;;;;;;;;;;5001108;28;20203;-71
2022/05/13 11:08:41;;;;;;;3.67;1.40;;;;;;;;;;5003353;28;20198;-71
2022/05/13 11:11:06;;;;;;;5.20;1.73;;;;;;;;;;4999228;28;20261;-70
2022/05/13 11:13:40;;;;;;;5.00;1.60;;;;;;;;;;5003062;28;20257;-71
2022/05/13 11:16:12;;;;;;;5.57;1.38;;;;;;;;;;5001310;28;20715;-70
2022/05/13 11:18:50;;;;;;;7.70;1.80;;;;;;;;;;4998926;28;20194;-70
2022/05/13 11:21:25;;;;;;;5.97;2.03;;;;;;;;;;4999051;28;20210;-70
2022/05/13 11:26:45;;;;;;;2.08;1.17;;;;;;;;;;5002897;28;20267;-71
2022/05/13 11:29:24;;;;;;;5.72;1.00;;;;;;;;;;5003430;28;20178;-71
2022/05/13 11:32:08;;;;;;;4.30;1.30;;;;;;;;;;4998197;28;20207;-69
2022/05/13 11:34:45;;;;;;;5.60;1.60;;;;;;;;;;5001702;28;20187;-70
2022/05/13 11:37:12;;;;;;;4.88;1.77;;;;;;;;;;4998830;28;20787;-70
2022/05/13 11:39:56;;;;;;;4.20;1.40;;;;;;;;;;5005217;28;20178;-70
2022/05/13 11:43:18;;;;;;;7.50;1.70;;;;;;;;;;5001427;28;20207;-71
2022/05/13 11:45:41;;;;;;;5.40;1.73;;;;;;;;;;5004216;28;20203;-71
2022/05/13 11:48:12;;;;;;;5.28;1.52;;;;;;;;;;5000508;28;20316;-71
2022/05/13 11:50:38;;;;;;;3.58;1.40;;;;;;;;;;5000770;28;20185;-70
2022/05/13 11:53:03;;;;;;;2.00;0.95;;;;;;;;;;4998467;28;20202;-70
2022/05/13 11:55:45;;;;;;;7.82;2.10;;;;;;;;;;5001497;28;20179;-71
2022/05/13 11:58:29;;;;;;;6.03;1.40;;;;;;;;;;5000008;28;20207;-70
2022/05/13 12:00:54;;;;;;;5.05;1.60;;;;;;;;;;5002828;28;20277;-70
2022/05/13 12:03:20;;;;;;;5.00;1.45;;;;;;;;;;5005334;28;20270;-71
2022/05/13 12:05:51;;;;;;;3.83;1.25;;;;;;;;;;5005866;28;20237;-71
2022/05/13 12:08:16;;;;;;;4.00;1.67;;;;;;;;;;5006610;28;20336;-71
2022/05/13 12:10:48;;;;;;;2.67;1.60;;;;;;;;;;5004728;28;20182;-69
2022/05/13 12:13:13;;;;;;;4.78;1.30;;;;;;;;;;5006751;28;20442;-70
2022/05/13 12:16:06;;;;;;;4.80;1.50;;;;;;;;;;5002217;28;20182;-71
2022/05/13 12:18:39;;;;;;;2.88;1.13;;;;;;;;;;5009365;28;20435;-71
2022/05/13 12:21:10;;;;;;;5.95;1.65;;;;;;;;;;5003789;28;20226;-70
2022/05/13 12:23:43;;;;;;;6.70;1.42;;;;;;;;;;5004939;28;20531;-71
2022/05/13 12:26:12;;;;;;;4.10;1.27;;;;;;;;;;5005256;28;20213;-71
2022/05/13 12:28:37;;;;;;;5.35;1.80;;;;;;;;;;5008078;28;20661;-70
2022/05/13 12:31:15;;;;;;;4.68;0.98;;;;;;;;;;5003087;28;20217;-71
2022/05/13 12:33:46;;;;;;;4.65;1.50;;;;;;;;;;5005866;28;20183;-71
2022/05/13 12:39:15;;;;;;;3.35;1.45;;;;;;;;;;5003772;28;20333;-70
2022/05/13 12:41:41;;;;;;;5.72;1.25;;;;;;;;;;5003348;28;20871;-71
2022/05/13 12:44:08;;;;;;;5.72;1.42;;;;;;;;;;5007397;28;20190;-71
2022/05/13 12:46:41;;;;;;;5.25;1.52;;;;;;;;;;5001587;28;20225;-71
2022/05/13 12:49:12;;;;;;;2.58;0.80;;;;;;;;;;5000977;28;20266;-71
2022/05/13 12:51:41;;;;;;;2.38;1.00;;;;;;;;;;5003559;28;20312;-70
2022/05/13 12:54:07;;;;;;;2.30;0.93;;;;;;;;;;5011495;28;20312;-71
2022/05/13 12:56:36;;;;;;;3.05;1.40;;;;;;;;;;4998999;28;20717;-71
2022/05/13 12:59:03;;;;;;;4.47;1.40;;;;;;;;;;5003678;28;20186;-71
2022/05/13 13:01:29;;;;;;;3.88;1.52;;;;;;;;;;5002545;28;20198;-70
2022/05/13 13:03:55;;;;;;;4.63;1.50;;;;;;;;;;5004404;28;20269;-70
2022/05/13 13:06:21;;;;;;;3.22;1.50;;;;;;;;;;5008880;28;20232;-70
2022/05/13 13:08:48;;;;;;;5.82;2.10;;;;;;;;;;5002746;28;20214;-70
2022/05/13 13:11:32;;;;;;;5.07;1.00;;;;;;;;;;5003115;28;20222;-71
2022/05/13 13:14:03;;;;;;;3.13;1.00;;;;;;;;;;5007011;28;20210;-71
2022/05/13 13:16:37;;;;;;;2.97;1.00;;;;;;;;;;5003848;28;20185;-70
2022/05/13 13:19:07;;;;;;;3.13;1.15;;;;;;;;;;5003403;28;20261;-71
2022/05/13 13:21:33;;;;;;;4.03;1.98;;;;;;;;;;5004936;28;20399;-70
2022/05/13 13:24:00;;;;;;;3.78;1.25;;;;;;;;;;5003185;28;20187;-73
2022/05/13 13:26:25;;;;;;;3.60;1.30;;;;;;;;;;5025504;28;20644;-70
2022/05/13 13:28:52;;;;;;;3.20;1.13;;;;;;;;;;5032348;28;20171;-70
2022/05/13 13:31:22;;;;;;;4.00;1.10;;;;;;;;;;5028600;28;20234;-71
2022/05/13 13:33:54;;;;;;;4.03;1.48;;;;;;;;;;5011135;28;20315;-70
2022/05/13 13:36:29;;;;;;;3.45;1.00;;;;;;;;;;5003188;28;20929;-70
2022/05/13 13:38:56;;;;;;;4.85;1.95;;;;;;;;;;5001124;28;20186;-70
2022/05/13 13:41:31;;;;;;;5.22;1.30;;;;;;;;;;5003610;28;20747;-70
2022/05/13 13:43:57;;;;;;;5.30;1.42;;;;;;;;;;5003917;28;20245;-70
2022/05/13 13:46:30;;;;;;;6.05;1.77;;;;;;;;;;5001049;28;20253;-69
2022/05/13 13:48:56;;;;;;;6.80;1.67;;;;;;;;;;4998254;28;20175;-70
2022/05/13 13:51:24;;;;;;;3.38;1.35;;;;;;;;;;5004584;28;20198;-70
2022/05/13 13:53:54;;;;;;;7.50;1.83;;;;;;;;;;5002185;28;20229;-70
2022/05/13 13:56:19;;;;;;;4.18;1.60;;;;;;;;;;5000767;28;20189;-69
2022/05/13 13:58:44;;;;;;;4.68;1.38;;;;;;;;;;5004252;28;20557;-68
2022/05/13 14:01:14;;;;;;;6.60;1.67;;;;;;;;;;5006514;28;20845;-70
2022/05/13 14:03:39;;;;;;;3.45;1.52;;;;;;;;;;5001610;28;20183;-70
2022/05/13 14:06:06;;;;;;;5.40;1.60;;;;;;;;;;5006358;28;20206;-70
2022/05/13 14:08:36;;;;;;;4.47;1.58;;;;;;;;;;5002103;28;20436;-70
2022/05/13 14:11:15;;;;;;;6.50;2.40;;;;;;;;;;5006949;28;20289;-70
2022/05/13 14:13:45;;;;;;;3.22;1.58;;;;;;;;;;5007763;28;20202;-70
2022/05/13 14:16:30;;;;;;;7.80;1.70;;;;;;;;;;5004219;28;20652;-70
2022/05/13 14:19:11;;;;;;;4.28;1.67;;;;;;;;;;5001463;28;20202;-70
2022/05/13 14:21:45;;;;;;;3.20;1.63;;;;;;;;;;5000439;28;20213;-70
2022/05/13 14:24:10;;;;;;;5.22;1.58;;;;;;;;;;5003676;28;20193;-70
2022/05/13 14:26:54;;;;;;;5.87;2.33;;;;;;;;;;4999830;28;20202;-70
2022/05/13 14:29:20;;;;;;;5.57;1.58;;;;;;;;;;5005786;28;20428;-70
2022/05/13 14:31:47;;;;;;;7.38;2.38;;;;;;;;;;5008614;28;20210;-70
2022/05/13 14:34:13;;;;;;;4.38;1.45;;;;;;;;;;5003926;28;21828;-70
2022/05/13 14:36:40;;;;;;;4.68;1.35;;;;;;;;;;5001649;28;20726;-69
2022/05/13 14:42:23;;;;;;;5.35;1.65;;;;;;;;;;5005671;28;20819;-69
2022/05/13 14:44:50;;;;;;;4.13;1.48;;;;;;;;;;5003694;28;20191;-70
2022/05/13 14:47:19;;;;;;;3.45;1.58;;;;;;;;;;5005506;28;20179;-70
2022/05/13 14:49:44;;;;;;;3.55;1.15;;;;;;;;;;5006720;28;20193;-70
2022/05/13 14:52:18;;;;;;;4.55;1.20;;;;;;;;;;5004322;28;20199;-70
2022/05/13 14:54:45;;;;;;;4.43;1.88;;;;;;;;;;5004889;28;20186;-70
2022/05/13 14:57:10;;;;;;;2.17;1.50;;;;;;;;;;5006642;28;20189;-70
2022/05/13 14:59:38;;;;;;;5.35;1.70;;;;;;;;;;5003319;28;20182;-69
2022/05/13 15:02:14;;;;;;;5.07;1.60;;;;;;;;;;5001065;28;20195;-69
2022/05/13 15:04:52;;;;;;;7.55;1.70;;;;;;;;;;5000824;28;20182;-70
2022/05/13 15:07:19;;;;;;;3.30;1.33;;;;;;;;;;5002423;28;20182;-70
2022/05/13 15:09:45;;;;;;;6.60;1.60;;;;;;;;;;5007518;28;20198;-72